Terminal Aerodrome Forecast
Issued by NWS Wilmington, NC

Current Version | Previous Version | Text Only | Print | Product List | Glossary On
Versions: 1 2 3 4 5 6 7 8 9 10 11 12 13 14
000
FTUS42 KILM 291138
TAFMYR
TAF
KMYR 291138Z 2912/3012 20010KT P6SM VCSH SCT018 BKN050
     FM291700 17012KT P6SM VCTS FEW035CB SCT120 SCT250
     FM292200 18009KT P6SM SCT045 SCT120 SCT250
     FM300200 20003KT P6SM SCT015 SCT250=

USA.gov is the U.S. government's official web portal to all federal, state and local government web resources and services.